sensor_id;sensor_type;location;lat;lon;timestamp;P1;durP1;ratioP1;P2;durP2;ratioP2
76795;SDS011;65745;50.278;18.192;2024-02-04T00:01:43;3.90;;;2.70;;
76795;SDS011;65745;50.278;18.192;2024-02-04T00:04:15;3.10;;;2.50;;
76795;SDS011;65745;50.278;18.192;2024-02-04T00:06:49;3.80;;;2.70;;
76795;SDS011;65745;50.278;18.192;2024-02-04T00:09:21;3.00;;;2.60;;
76795;SDS011;65745;50.278;18.192;2024-02-04T00:11:53;3.60;;;2.70;;
76795;SDS011;65745;50.278;18.192;2024-02-04T00:14:28;2.90;;;2.60;;
76795;SDS011;65745;50.278;18.192;2024-02-04T00:17:01;2.50;;;2.30;;
76795;SDS011;65745;50.278;18.192;2024-02-04T00:19:33;2.60;;;2.40;;
76795;SDS011;65745;50.278;18.192;2024-02-04T00:22:06;4.40;;;2.70;;
76795;SDS011;65745;50.278;18.192;2024-02-04T00:24:38;3.30;;;2.60;;
76795;SDS011;65745;50.278;18.192;2024-02-04T00:27:10;3.40;;;2.60;;
76795;SDS011;65745;50.278;18.192;2024-02-04T00:29:42;3.30;;;2.30;;
76795;SDS011;65745;50.278;18.192;2024-02-04T00:32:15;3.00;;;2.40;;
76795;SDS011;65745;50.278;18.192;2024-02-04T00:34:47;3.00;;;2.40;;
76795;SDS011;65745;50.278;18.192;2024-02-04T00:37:20;2.60;;;2.10;;
76795;SDS011;65745;50.278;18.192;2024-02-04T00:39:52;2.30;;;2.00;;
76795;SDS011;65745;50.278;18.192;2024-02-04T00:42:24;2.30;;;1.90;;
76795;SDS011;65745;50.278;18.192;2024-02-04T00:44:57;2.10;;;1.90;;
76795;SDS011;65745;50.278;18.192;2024-02-04T00:47:29;3.30;;;2.40;;
76795;SDS011;65745;50.278;18.192;2024-02-04T00:50:01;2.40;;;2.10;;
76795;SDS011;65745;50.278;18.192;2024-02-04T00:52:34;2.70;;;2.20;;
76795;SDS011;65745;50.278;18.192;2024-02-04T00:55:07;3.40;;;2.00;;
76795;SDS011;65745;50.278;18.192;2024-02-04T00:57:40;2.50;;;1.90;;
76795;SDS011;65745;50.278;18.192;2024-02-04T01:00:13;3.10;;;2.40;;
76795;SDS011;65745;50.278;18.192;2024-02-04T01:02:46;2.20;;;1.90;;
76795;SDS011;65745;50.278;18.192;2024-02-04T01:05:18;2.80;;;2.00;;
76795;SDS011;65745;50.278;18.192;2024-02-04T01:07:51;2.30;;;2.00;;
76795;SDS011;65745;50.278;18.192;2024-02-04T01:10:23;2.60;;;2.20;;
76795;SDS011;65745;50.278;18.192;2024-02-04T01:12:55;2.90;;;2.00;;
76795;SDS011;65745;50.278;18.192;2024-02-04T01:15:27;2.20;;;1.90;;
76795;SDS011;65745;50.278;18.192;2024-02-04T01:18:00;2.10;;;1.70;;
76795;SDS011;65745;50.278;18.192;2024-02-04T01:20:32;2.50;;;2.20;;
76795;SDS011;65745;50.278;18.192;2024-02-04T01:23:04;2.60;;;2.20;;
76795;SDS011;65745;50.278;18.192;2024-02-04T01:25:38;2.20;;;1.90;;
76795;SDS011;65745;50.278;18.192;2024-02-04T01:28:12;2.60;;;2.20;;
76795;SDS011;65745;50.278;18.192;2024-02-04T01:30:44;2.80;;;2.00;;
76795;SDS011;65745;50.278;18.192;2024-02-04T01:33:16;2.30;;;1.70;;
76795;SDS011;65745;50.278;18.192;2024-02-04T01:35:49;3.00;;;2.10;;
76795;SDS011;65745;50.278;18.192;2024-02-04T01:38:22;2.40;;;2.00;;
76795;SDS011;65745;50.278;18.192;2024-02-04T01:40:55;2.80;;;2.30;;
76795;SDS011;65745;50.278;18.192;2024-02-04T01:43:27;2.70;;;2.10;;
76795;SDS011;65745;50.278;18.192;2024-02-04T01:46:00;2.40;;;2.00;;
76795;SDS011;65745;50.278;18.192;2024-02-04T01:48:37;2.40;;;2.00;;
76795;SDS011;65745;50.278;18.192;2024-02-04T01:51:09;2.00;;;1.60;;
76795;SDS011;65745;50.278;18.192;2024-02-04T01:53:43;2.00;;;1.70;;
76795;SDS011;65745;50.278;18.192;2024-02-04T01:56:16;3.00;;;1.70;;
76795;SDS011;65745;50.278;18.192;2024-02-04T01:58:50;3.00;;;1.70;;
76795;SDS011;65745;50.278;18.192;2024-02-04T02:01:27;2.10;;;1.60;;
76795;SDS011;65745;50.278;18.192;2024-02-04T02:03:59;2.20;;;1.80;;
76795;SDS011;65745;50.278;18.192;2024-02-04T02:06:32;2.30;;;1.90;;
76795;SDS011;65745;50.278;18.192;2024-02-04T02:09:11;2.80;;;2.00;;
76795;SDS011;65745;50.278;18.192;2024-02-04T02:11:45;2.20;;;1.80;;
76795;SDS011;65745;50.278;18.192;2024-02-04T02:14:25;3.50;;;1.90;;
76795;SDS011;65745;50.278;18.192;2024-02-04T02:17:01;2.20;;;1.60;;
76795;SDS011;65745;50.278;18.192;2024-02-04T02:19:44;2.50;;;1.80;;
76795;SDS011;65745;50.278;18.192;2024-02-04T02:22:28;1.80;;;1.50;;
76795;SDS011;65745;50.278;18.192;2024-02-04T02:25:08;1.90;;;1.60;;
76795;SDS011;65745;50.278;18.192;2024-02-04T02:27:49;2.30;;;1.90;;
76795;SDS011;65745;50.278;18.192;2024-02-04T02:30:22;2.10;;;1.90;;
76795;SDS011;65745;50.278;18.192;2024-02-04T02:32:54;1.90;;;1.70;;
76795;SDS011;65745;50.278;18.192;2024-02-04T02:35:27;3.40;;;2.50;;
76795;SDS011;65745;50.278;18.192;2024-02-04T02:38:02;2.80;;;2.20;;
76795;SDS011;65745;50.278;18.192;2024-02-04T02:40:43;2.80;;;1.90;;
76795;SDS011;65745;50.278;18.192;2024-02-04T02:43:19;1.90;;;1.50;;
76795;SDS011;65745;50.278;18.192;2024-02-04T02:45:52;3.20;;;2.00;;
76795;SDS011;65745;50.278;18.192;2024-02-04T02:48:24;1.70;;;1.60;;
76795;SDS011;65745;50.278;18.192;2024-02-04T02:50:58;1.80;;;1.50;;
76795;SDS011;65745;50.278;18.192;2024-02-04T02:53:30;2.70;;;1.80;;
76795;SDS011;65745;50.278;18.192;2024-02-04T02:56:03;2.30;;;1.80;;
76795;SDS011;65745;50.278;18.192;2024-02-04T02:58:36;4.40;;;2.00;;
76795;SDS011;65745;50.278;18.192;2024-02-04T03:01:08;2.30;;;2.00;;
76795;SDS011;65745;50.278;18.192;2024-02-04T03:03:41;2.90;;;2.30;;
76795;SDS011;65745;50.278;18.192;2024-02-04T03:06:13;2.30;;;1.90;;
76795;SDS011;65745;50.278;18.192;2024-02-04T03:08:46;2.80;;;2.00;;
76795;SDS011;65745;50.278;18.192;2024-02-04T03:11:19;2.20;;;1.90;;
76795;SDS011;65745;50.278;18.192;2024-02-04T03:13:51;1.90;;;1.70;;
76795;SDS011;65745;50.278;18.192;2024-02-04T03:16:24;2.80;;;2.30;;
76795;SDS011;65745;50.278;18.192;2024-02-04T03:18:56;1.80;;;1.50;;
76795;SDS011;65745;50.278;18.192;2024-02-04T03:21:29;2.00;;;1.80;;
76795;SDS011;65745;50.278;18.192;2024-02-04T03:24:01;2.40;;;2.00;;
76795;SDS011;65745;50.278;18.192;2024-02-04T03:26:34;2.60;;;2.00;;
76795;SDS011;65745;50.278;18.192;2024-02-04T03:29:06;2.60;;;2.40;;
76795;SDS011;65745;50.278;18.192;2024-02-04T03:31:39;3.60;;;2.50;;
76795;SDS011;65745;50.278;18.192;2024-02-04T03:34:11;3.80;;;3.10;;
76795;SDS011;65745;50.278;18.192;2024-02-04T03:36:44;3.10;;;2.60;;
76795;SDS011;65745;50.278;18.192;2024-02-04T03:39:16;3.30;;;2.80;;
76795;SDS011;65745;50.278;18.192;2024-02-04T03:41:49;3.00;;;2.50;;
76795;SDS011;65745;50.278;18.192;2024-02-04T03:44:21;3.30;;;2.40;;
76795;SDS011;65745;50.278;18.192;2024-02-04T03:46:53;2.40;;;2.20;;
76795;SDS011;65745;50.278;18.192;2024-02-04T03:49:25;3.60;;;2.40;;
76795;SDS011;65745;50.278;18.192;2024-02-04T03:51:58;3.20;;;2.80;;
76795;SDS011;65745;50.278;18.192;2024-02-04T03:54:31;3.40;;;2.60;;
76795;SDS011;65745;50.278;18.192;2024-02-04T03:57:03;2.90;;;2.40;;
76795;SDS011;65745;50.278;18.192;2024-02-04T03:59:36;3.00;;;2.60;;
76795;SDS011;65745;50.278;18.192;2024-02-04T04:02:08;3.00;;;2.40;;
76795;SDS011;65745;50.278;18.192;2024-02-04T04:04:41;2.90;;;2.40;;
76795;SDS011;65745;50.278;18.192;2024-02-04T04:07:17;3.40;;;2.40;;
76795;SDS011;65745;50.278;18.192;2024-02-04T04:09:49;2.60;;;2.10;;
76795;SDS011;65745;50.278;18.192;2024-02-04T04:12:22;2.60;;;1.90;;
76795;SDS011;65745;50.278;18.192;2024-02-04T04:14:54;3.70;;;2.70;;
76795;SDS011;65745;50.278;18.192;2024-02-04T04:17:26;2.40;;;2.10;;
76795;SDS011;65745;50.278;18.192;2024-02-04T04:19:59;2.30;;;2.10;;
76795;SDS011;65745;50.278;18.192;2024-02-04T04:22:32;3.60;;;2.10;;
76795;SDS011;65745;50.278;18.192;2024-02-04T04:25:04;3.00;;;2.70;;
76795;SDS011;65745;50.278;18.192;2024-02-04T04:27:37;3.40;;;3.00;;
76795;SDS011;65745;50.278;18.192;2024-02-04T04:30:10;2.30;;;1.80;;
76795;SDS011;65745;50.278;18.192;2024-02-04T04:32:43;2.80;;;2.40;;
76795;SDS011;65745;50.278;18.192;2024-02-04T04:35:15;2.80;;;2.30;;
76795;SDS011;65745;50.278;18.192;2024-02-04T04:37:47;3.50;;;2.60;;
76795;SDS011;65745;50.278;18.192;2024-02-04T04:40:20;4.30;;;2.30;;
76795;SDS011;65745;50.278;18.192;2024-02-04T04:42:52;2.40;;;2.00;;
76795;SDS011;65745;50.278;18.192;2024-02-04T04:45:24;3.40;;;2.00;;
76795;SDS011;65745;50.278;18.192;2024-02-04T04:47:57;3.90;;;2.10;;
76795;SDS011;65745;50.278;18.192;2024-02-04T04:50:29;2.00;;;1.80;;
76795;SDS011;65745;50.278;18.192;2024-02-04T04:53:02;3.10;;;2.40;;
76795;SDS011;65745;50.278;18.192;2024-02-04T04:55:34;2.00;;;1.80;;
76795;SDS011;65745;50.278;18.192;2024-02-04T04:58:07;3.00;;;2.00;;
76795;SDS011;65745;50.278;18.192;2024-02-04T05:00:39;1.80;;;1.50;;
76795;SDS011;65745;50.278;18.192;2024-02-04T05:03:11;2.40;;;1.60;;
76795;SDS011;65745;50.278;18.192;2024-02-04T05:05:44;1.40;;;1.30;;
76795;SDS011;65745;50.278;18.192;2024-02-04T05:08:16;1.30;;;1.20;;
76795;SDS011;65745;50.278;18.192;2024-02-04T05:10:49;1.40;;;1.30;;
76795;SDS011;65745;50.278;18.192;2024-02-04T05:13:21;1.60;;;1.20;;
76795;SDS011;65745;50.278;18.192;2024-02-04T05:15:53;2.30;;;1.30;;
76795;SDS011;65745;50.278;18.192;2024-02-04T05:18:26;2.00;;;1.30;;
76795;SDS011;65745;50.278;18.192;2024-02-04T05:20:58;1.40;;;1.20;;
76795;SDS011;65745;50.278;18.192;2024-02-04T05:23:33;2.00;;;1.30;;
76795;SDS011;65745;50.278;18.192;2024-02-04T05:26:06;1.80;;;1.40;;
76795;SDS011;65745;50.278;18.192;2024-02-04T05:28:39;2.70;;;1.50;;
76795;SDS011;65745;50.278;18.192;2024-02-04T05:31:11;1.30;;;1.10;;
76795;SDS011;65745;50.278;18.192;2024-02-04T05:33:44;3.10;;;1.40;;
76795;SDS011;65745;50.278;18.192;2024-02-04T05:36:16;2.20;;;1.20;;
76795;SDS011;65745;50.278;18.192;2024-02-04T05:38:48;1.20;;;1.00;;
76795;SDS011;65745;50.278;18.192;2024-02-04T05:41:21;1.30;;;1.10;;
76795;SDS011;65745;50.278;18.192;2024-02-04T05:43:53;1.70;;;1.20;;
76795;SDS011;65745;50.278;18.192;2024-02-04T05:46:25;2.10;;;1.20;;
76795;SDS011;65745;50.278;18.192;2024-02-04T05:48:58;2.60;;;1.30;;
76795;SDS011;65745;50.278;18.192;2024-02-04T05:51:31;2.60;;;1.50;;
76795;SDS011;65745;50.278;18.192;2024-02-04T05:54:07;1.80;;;1.20;;
76795;SDS011;65745;50.278;18.192;2024-02-04T05:56:40;1.90;;;1.30;;
76795;SDS011;65745;50.278;18.192;2024-02-04T05:59:12;1.50;;;1.40;;
76795;SDS011;65745;50.278;18.192;2024-02-04T06:01:46;2.00;;;1.30;;
76795;SDS011;65745;50.278;18.192;2024-02-04T06:04:19;1.90;;;1.20;;
76795;SDS011;65745;50.278;18.192;2024-02-04T06:06:51;1.60;;;1.30;;
76795;SDS011;65745;50.278;18.192;2024-02-04T06:09:24;1.90;;;1.30;;
76795;SDS011;65745;50.278;18.192;2024-02-04T06:11:56;1.80;;;1.40;;
76795;SDS011;65745;50.278;18.192;2024-02-04T06:14:28;2.20;;;1.50;;
76795;SDS011;65745;50.278;18.192;2024-02-04T06:17:01;2.40;;;1.40;;
76795;SDS011;65745;50.278;18.192;2024-02-04T06:19:34;2.00;;;1.50;;
76795;SDS011;65745;50.278;18.192;2024-02-04T06:22:07;1.90;;;1.30;;
76795;SDS011;65745;50.278;18.192;2024-02-04T06:24:39;1.90;;;1.60;;
76795;SDS011;65745;50.278;18.192;2024-02-04T06:27:12;2.40;;;1.80;;
76795;SDS011;65745;50.278;18.192;2024-02-04T06:29:44;3.80;;;1.90;;
76795;SDS011;65745;50.278;18.192;2024-02-04T06:32:17;4.10;;;2.00;;
76795;SDS011;65745;50.278;18.192;2024-02-04T06:34:50;2.50;;;1.80;;
76795;SDS011;65745;50.278;18.192;2024-02-04T06:37:25;2.20;;;1.60;;
76795;SDS011;65745;50.278;18.192;2024-02-04T06:39:57;4.40;;;1.80;;
76795;SDS011;65745;50.278;18.192;2024-02-04T06:42:29;2.00;;;1.70;;
76795;SDS011;65745;50.278;18.192;2024-02-04T06:45:02;3.40;;;1.90;;
76795;SDS011;65745;50.278;18.192;2024-02-04T06:47:34;2.60;;;1.70;;
76795;SDS011;65745;50.278;18.192;2024-02-04T06:50:08;2.70;;;1.80;;
76795;SDS011;65745;50.278;18.192;2024-02-04T06:52:43;2.40;;;1.90;;
76795;SDS011;65745;50.278;18.192;2024-02-04T06:55:16;3.20;;;1.90;;
76795;SDS011;65745;50.278;18.192;2024-02-04T06:57:48;1.90;;;1.70;;
76795;SDS011;65745;50.278;18.192;2024-02-04T07:00:21;3.30;;;1.70;;
76795;SDS011;65745;50.278;18.192;2024-02-04T07:02:55;3.40;;;1.90;;
76795;SDS011;65745;50.278;18.192;2024-02-04T07:05:27;3.80;;;2.30;;
76795;SDS011;65745;50.278;18.192;2024-02-04T07:08:00;3.10;;;1.70;;
76795;SDS011;65745;50.278;18.192;2024-02-04T07:10:33;3.30;;;1.60;;
76795;SDS011;65745;50.278;18.192;2024-02-04T07:13:05;2.60;;;1.90;;
76795;SDS011;65745;50.278;18.192;2024-02-04T07:15:41;4.60;;;2.20;;
76795;SDS011;65745;50.278;18.192;2024-02-04T07:18:14;2.50;;;1.90;;
76795;SDS011;65745;50.278;18.192;2024-02-04T07:20:51;2.90;;;2.10;;
76795;SDS011;65745;50.278;18.192;2024-02-04T07:23:23;4.70;;;2.40;;
76795;SDS011;65745;50.278;18.192;2024-02-04T07:25:56;5.00;;;2.30;;
76795;SDS011;65745;50.278;18.192;2024-02-04T07:28:28;4.00;;;2.20;;
76795;SDS011;65745;50.278;18.192;2024-02-04T07:31:01;3.30;;;2.30;;
76795;SDS011;65745;50.278;18.192;2024-02-04T07:33:33;3.40;;;2.10;;
76795;SDS011;65745;50.278;18.192;2024-02-04T07:36:08;4.70;;;2.10;;
76795;SDS011;65745;50.278;18.192;2024-02-04T07:38:43;3.20;;;2.10;;
76795;SDS011;65745;50.278;18.192;2024-02-04T07:41:15;5.10;;;2.20;;
76795;SDS011;65745;50.278;18.192;2024-02-04T07:43:48;4.80;;;2.60;;
76795;SDS011;65745;50.278;18.192;2024-02-04T07:46:20;3.90;;;2.40;;
76795;SDS011;65745;50.278;18.192;2024-02-04T07:48:52;3.40;;;2.50;;
76795;SDS011;65745;50.278;18.192;2024-02-04T07:51:25;5.00;;;2.90;;
76795;SDS011;65745;50.278;18.192;2024-02-04T07:53:58;6.30;;;3.60;;
76795;SDS011;65745;50.278;18.192;2024-02-04T07:56:30;5.30;;;3.30;;
76795;SDS011;65745;50.278;18.192;2024-02-04T07:59:02;7.60;;;4.30;;
76795;SDS011;65745;50.278;18.192;2024-02-04T08:01:35;11.30;;;5.80;;
76795;SDS011;65745;50.278;18.192;2024-02-04T08:04:07;25.80;;;14.30;;
76795;SDS011;65745;50.278;18.192;2024-02-04T08:06:40;16.70;;;8.80;;
76795;SDS011;65745;50.278;18.192;2024-02-04T08:09:12;10.50;;;6.30;;
76795;SDS011;65745;50.278;18.192;2024-02-04T08:11:45;23.60;;;9.20;;
76795;SDS011;65745;50.278;18.192;2024-02-04T08:14:18;16.00;;;7.70;;
76795;SDS011;65745;50.278;18.192;2024-02-04T08:16:51;15.80;;;7.90;;
76795;SDS011;65745;50.278;18.192;2024-02-04T08:19:23;10.40;;;6.40;;
76795;SDS011;65745;50.278;18.192;2024-02-04T08:21:56;6.50;;;4.30;;
76795;SDS011;65745;50.278;18.192;2024-02-04T08:24:30;4.90;;;3.60;;
76795;SDS011;65745;50.278;18.192;2024-02-04T08:27:03;8.50;;;4.20;;
76795;SDS011;65745;50.278;18.192;2024-02-04T08:29:36;6.30;;;3.30;;
76795;SDS011;65745;50.278;18.192;2024-02-04T08:32:11;5.90;;;3.10;;
76795;SDS011;65745;50.278;18.192;2024-02-04T08:34:46;5.50;;;3.10;;
76795;SDS011;65745;50.278;18.192;2024-02-04T08:37:23;7.20;;;3.20;;
76795;SDS011;65745;50.278;18.192;2024-02-04T08:39:58;8.30;;;4.60;;
76795;SDS011;65745;50.278;18.192;2024-02-04T08:42:32;6.60;;;3.60;;
76795;SDS011;65745;50.278;18.192;2024-02-04T08:45:06;6.90;;;4.50;;
76795;SDS011;65745;50.278;18.192;2024-02-04T08:47:39;5.80;;;4.50;;
76795;SDS011;65745;50.278;18.192;2024-02-04T08:50:13;7.30;;;4.10;;
76795;SDS011;65745;50.278;18.192;2024-02-04T08:52:52;6.80;;;4.10;;
76795;SDS011;65745;50.278;18.192;2024-02-04T08:55:25;5.10;;;3.20;;
76795;SDS011;65745;50.278;18.192;2024-02-04T08:57:58;6.60;;;3.80;;
76795;SDS011;65745;50.278;18.192;2024-02-04T09:00:31;4.80;;;3.60;;
76795;SDS011;65745;50.278;18.192;2024-02-04T09:03:04;6.20;;;3.60;;
76795;SDS011;65745;50.278;18.192;2024-02-04T09:05:37;6.00;;;3.50;;
76795;SDS011;65745;50.278;18.192;2024-02-04T09:08:11;5.50;;;3.20;;
76795;SDS011;65745;50.278;18.192;2024-02-04T09:10:44;6.10;;;3.60;;
76795;SDS011;65745;50.278;18.192;2024-02-04T09:13:18;7.00;;;4.10;;
76795;SDS011;65745;50.278;18.192;2024-02-04T09:15:51;5.40;;;3.70;;
76795;SDS011;65745;50.278;18.192;2024-02-04T09:20:59;6.80;;;4.70;;
76795;SDS011;65745;50.278;18.192;2024-02-04T09:23:33;7.10;;;5.30;;
76795;SDS011;65745;50.278;18.192;2024-02-04T09:26:06;7.90;;;5.90;;
76795;SDS011;65745;50.278;18.192;2024-02-04T09:28:39;9.50;;;6.30;;
76795;SDS011;65745;50.278;18.192;2024-02-04T09:31:14;8.70;;;6.00;;
76795;SDS011;65745;50.278;18.192;2024-02-04T09:33:49;7.50;;;5.20;;
76795;SDS011;65745;50.278;18.192;2024-02-04T09:36:22;6.40;;;4.50;;
76795;SDS011;65745;50.278;18.192;2024-02-04T09:38:54;5.00;;;4.50;;
76795;SDS011;65745;50.278;18.192;2024-02-04T09:41:27;5.40;;;4.40;;
76795;SDS011;65745;50.278;18.192;2024-02-04T09:43:59;32.00;;;28.90;;
76795;SDS011;65745;50.278;18.192;2024-02-04T09:46:33;8.30;;;6.40;;
76795;SDS011;65745;50.278;18.192;2024-02-04T09:49:06;12.50;;;11.00;;
76795;SDS011;65745;50.278;18.192;2024-02-04T09:51:41;18.40;;;16.60;;
76795;SDS011;65745;50.278;18.192;2024-02-04T09:54:14;13.60;;;12.30;;
76795;SDS011;65745;50.278;18.192;2024-02-04T09:56:49;10.50;;;9.50;;
76795;SDS011;65745;50.278;18.192;2024-02-04T09:59:22;11.30;;;10.30;;
76795;SDS011;65745;50.278;18.192;2024-02-04T10:01:55;11.50;;;10.40;;
76795;SDS011;65745;50.278;18.192;2024-02-04T10:04:28;10.40;;;9.40;;
76795;SDS011;65745;50.278;18.192;2024-02-04T10:07:00;8.70;;;5.70;;
76795;SDS011;65745;50.278;18.192;2024-02-04T10:09:33;5.80;;;5.10;;
76795;SDS011;65745;50.278;18.192;2024-02-04T10:12:06;9.20;;;8.40;;
76795;SDS011;65745;50.278;18.192;2024-02-04T10:14:39;7.30;;;5.60;;
76795;SDS011;65745;50.278;18.192;2024-02-04T10:17:13;4.40;;;3.60;;
76795;SDS011;65745;50.278;18.192;2024-02-04T10:19:46;4.10;;;3.00;;
76795;SDS011;65745;50.278;18.192;2024-02-04T10:22:19;3.10;;;2.80;;
76795;SDS011;65745;50.278;18.192;2024-02-04T10:24:51;4.60;;;2.80;;
76795;SDS011;65745;50.278;18.192;2024-02-04T10:27:24;3.50;;;2.70;;
76795;SDS011;65745;50.278;18.192;2024-02-04T10:30:05;4.60;;;2.90;;
76795;SDS011;65745;50.278;18.192;2024-02-04T10:32:39;5.50;;;3.20;;
76795;SDS011;65745;50.278;18.192;2024-02-04T10:35:12;5.70;;;3.70;;
76795;SDS011;65745;50.278;18.192;2024-02-04T10:37:44;4.50;;;2.80;;
76795;SDS011;65745;50.278;18.192;2024-02-04T10:40:17;3.60;;;3.10;;
76795;SDS011;65745;50.278;18.192;2024-02-04T10:42:50;3.80;;;2.60;;
76795;SDS011;65745;50.278;18.192;2024-02-04T10:45:26;4.20;;;2.80;;
76795;SDS011;65745;50.278;18.192;2024-02-04T10:48:03;3.90;;;3.20;;
76795;SDS011;65745;50.278;18.192;2024-02-04T10:50:37;7.50;;;5.10;;
76795;SDS011;65745;50.278;18.192;2024-02-04T10:53:10;43.60;;;23.70;;
76795;SDS011;65745;50.278;18.192;2024-02-04T10:55:45;203.10;;;110.20;;
76795;SDS011;65745;50.278;18.192;2024-02-04T10:58:20;103.80;;;51.80;;
76795;SDS011;65745;50.278;18.192;2024-02-04T11:00:53;61.00;;;40.60;;
76795;SDS011;65745;50.278;18.192;2024-02-04T11:03:26;45.40;;;37.10;;
76795;SDS011;65745;50.278;18.192;2024-02-04T11:06:00;10.00;;;7.20;;
76795;SDS011;65745;50.278;18.192;2024-02-04T11:08:33;7.10;;;4.30;;
76795;SDS011;65745;50.278;18.192;2024-02-04T11:11:08;5.10;;;4.60;;
76795;SDS011;65745;50.278;18.192;2024-02-04T11:13:41;5.20;;;3.70;;
76795;SDS011;65745;50.278;18.192;2024-02-04T11:16:19;4.70;;;3.10;;
76795;SDS011;65745;50.278;18.192;2024-02-04T11:19:10;6.50;;;3.40;;
76795;SDS011;65745;50.278;18.192;2024-02-04T11:21:59;6.90;;;4.90;;
76795;SDS011;65745;50.278;18.192;2024-02-04T11:25:02;7.40;;;4.70;;
76795;SDS011;65745;50.278;18.192;2024-02-04T11:27:46;8.20;;;6.20;;
76795;SDS011;65745;50.278;18.192;2024-02-04T11:30:19;8.40;;;6.50;;
76795;SDS011;65745;50.278;18.192;2024-02-04T11:32:53;6.80;;;5.80;;
76795;SDS011;65745;50.278;18.192;2024-02-04T11:35:26;5.70;;;5.10;;
76795;SDS011;65745;50.278;18.192;2024-02-04T11:37:59;5.40;;;4.50;;
76795;SDS011;65745;50.278;18.192;2024-02-04T11:40:33;6.40;;;4.90;;
76795;SDS011;65745;50.278;18.192;2024-02-04T11:43:09;6.80;;;4.80;;
76795;SDS011;65745;50.278;18.192;2024-02-04T11:45:44;7.20;;;5.40;;
76795;SDS011;65745;50.278;18.192;2024-02-04T11:48:30;7.30;;;5.40;;
76795;SDS011;65745;50.278;18.192;2024-02-04T11:51:04;9.50;;;5.40;;
76795;SDS011;65745;50.278;18.192;2024-02-04T11:53:38;7.30;;;4.90;;
76795;SDS011;65745;50.278;18.192;2024-02-04T11:56:11;7.00;;;4.70;;
76795;SDS011;65745;50.278;18.192;2024-02-04T11:58:44;7.10;;;5.10;;
76795;SDS011;65745;50.278;18.192;2024-02-04T12:01:17;40.60;;;17.60;;
76795;SDS011;65745;50.278;18.192;2024-02-04T12:05:01;32.00;;;23.90;;
76795;SDS011;65745;50.278;18.192;2024-02-04T12:07:34;98.80;;;41.00;;
76795;SDS011;65745;50.278;18.192;2024-02-04T12:10:12;118.30;;;54.00;;
76795;SDS011;65745;50.278;18.192;2024-02-04T12:12:45;102.30;;;44.20;;
76795;SDS011;65745;50.278;18.192;2024-02-04T12:15:18;92.40;;;37.10;;
76795;SDS011;65745;50.278;18.192;2024-02-04T12:17:51;170.40;;;64.80;;
76795;SDS011;65745;50.278;18.192;2024-02-04T12:20:23;184.80;;;79.40;;
76795;SDS011;65745;50.278;18.192;2024-02-04T12:22:56;174.30;;;80.10;;
76795;SDS011;65745;50.278;18.192;2024-02-04T12:25:28;144.10;;;72.30;;
76795;SDS011;65745;50.278;18.192;2024-02-04T12:28:01;127.70;;;64.70;;
76795;SDS011;65745;50.278;18.192;2024-02-04T12:30:34;247.40;;;96.00;;
76795;SDS011;65745;50.278;18.192;2024-02-04T12:33:10;253.30;;;101.30;;
76795;SDS011;65745;50.278;18.192;2024-02-04T12:35:43;157.90;;;70.50;;
76795;SDS011;65745;50.278;18.192;2024-02-04T12:38:19;171.20;;;68.20;;
76795;SDS011;65745;50.278;18.192;2024-02-04T12:41:04;164.60;;;66.60;;
76795;SDS011;65745;50.278;18.192;2024-02-04T12:43:40;85.10;;;38.30;;
76795;SDS011;65745;50.278;18.192;2024-02-04T12:46:20;80.00;;;38.30;;
76795;SDS011;65745;50.278;18.192;2024-02-04T12:48:56;92.10;;;40.00;;
76795;SDS011;65745;50.278;18.192;2024-02-04T12:51:34;69.00;;;34.70;;
76795;SDS011;65745;50.278;18.192;2024-02-04T12:54:08;94.70;;;40.80;;
76795;SDS011;65745;50.278;18.192;2024-02-04T12:56:43;28.10;;;12.90;;
76795;SDS011;65745;50.278;18.192;2024-02-04T12:59:27;64.60;;;25.40;;
76795;SDS011;65745;50.278;18.192;2024-02-04T13:02:01;37.20;;;14.90;;
76795;SDS011;65745;50.278;18.192;2024-02-04T13:04:36;14.30;;;6.70;;
76795;SDS011;65745;50.278;18.192;2024-02-04T13:07:11;21.10;;;9.50;;
76795;SDS011;65745;50.278;18.192;2024-02-04T13:09:56;14.10;;;6.60;;
76795;SDS011;65745;50.278;18.192;2024-02-04T13:12:30;9.50;;;4.90;;
76795;SDS011;65745;50.278;18.192;2024-02-04T13:15:05;11.60;;;6.10;;
76795;SDS011;65745;50.278;18.192;2024-02-04T13:17:39;12.80;;;6.50;;
76795;SDS011;65745;50.278;18.192;2024-02-04T13:20:12;97.30;;;44.20;;
76795;SDS011;65745;50.278;18.192;2024-02-04T13:22:44;28.10;;;12.10;;
76795;SDS011;65745;50.278;18.192;2024-02-04T13:25:17;9.50;;;6.40;;
76795;SDS011;65745;50.278;18.192;2024-02-04T13:27:53;6.60;;;5.10;;
76795;SDS011;65745;50.278;18.192;2024-02-04T13:30:26;5.00;;;3.40;;
76795;SDS011;65745;50.278;18.192;2024-02-04T13:33:00;5.10;;;3.30;;
76795;SDS011;65745;50.278;18.192;2024-02-04T13:35:34;3.70;;;2.80;;
76795;SDS011;65745;50.278;18.192;2024-02-04T13:38:09;4.70;;;2.90;;
76795;SDS011;65745;50.278;18.192;2024-02-04T13:40:44;3.00;;;2.30;;
76795;SDS011;65745;50.278;18.192;2024-02-04T13:43:19;3.70;;;2.30;;
76795;SDS011;65745;50.278;18.192;2024-02-04T13:45:56;3.90;;;2.30;;
76795;SDS011;65745;50.278;18.192;2024-02-04T13:48:35;3.10;;;1.90;;
76795;SDS011;65745;50.278;18.192;2024-02-04T13:51:23;3.60;;;2.30;;
76795;SDS011;65745;50.278;18.192;2024-02-04T13:54:14;3.60;;;2.20;;
76795;SDS011;65745;50.278;18.192;2024-02-04T13:56:48;3.60;;;2.30;;
76795;SDS011;65745;50.278;18.192;2024-02-04T13:59:24;4.50;;;3.00;;
76795;SDS011;65745;50.278;18.192;2024-02-04T14:02:02;5.40;;;3.70;;
76795;SDS011;65745;50.278;18.192;2024-02-04T14:04:37;6.90;;;4.10;;
76795;SDS011;65745;50.278;18.192;2024-02-04T14:07:10;5.70;;;4.70;;
76795;SDS011;65745;50.278;18.192;2024-02-04T14:09:44;6.20;;;4.70;;
76795;SDS011;65745;50.278;18.192;2024-02-04T14:12:17;7.90;;;5.30;;
76795;SDS011;65745;50.278;18.192;2024-02-04T14:14:49;7.40;;;5.30;;
76795;SDS011;65745;50.278;18.192;2024-02-04T14:17:33;7.40;;;4.70;;
76795;SDS011;65745;50.278;18.192;2024-02-04T14:20:07;4.30;;;3.10;;
76795;SDS011;65745;50.278;18.192;2024-02-04T14:22:44;4.40;;;3.40;;
76795;SDS011;65745;50.278;18.192;2024-02-04T14:25:16;5.10;;;3.90;;
76795;SDS011;65745;50.278;18.192;2024-02-04T14:27:53;4.80;;;3.20;;
76795;SDS011;65745;50.278;18.192;2024-02-04T14:30:29;8.10;;;4.30;;
76795;SDS011;65745;50.278;18.192;2024-02-04T14:33:04;5.10;;;3.40;;
76795;SDS011;65745;50.278;18.192;2024-02-04T14:35:39;5.00;;;3.00;;
76795;SDS011;65745;50.278;18.192;2024-02-04T14:38:11;4.10;;;2.80;;
76795;SDS011;65745;50.278;18.192;2024-02-04T14:40:48;6.70;;;3.60;;
76795;SDS011;65745;50.278;18.192;2024-02-04T14:43:35;6.80;;;4.40;;
76795;SDS011;65745;50.278;18.192;2024-02-04T14:46:07;6.10;;;4.50;;
76795;SDS011;65745;50.278;18.192;2024-02-04T14:48:50;8.60;;;5.50;;
76795;SDS011;65745;50.278;18.192;2024-02-04T14:51:23;11.90;;;8.10;;
76795;SDS011;65745;50.278;18.192;2024-02-04T14:53:59;9.30;;;6.20;;
76795;SDS011;65745;50.278;18.192;2024-02-04T14:56:37;7.40;;;5.10;;
76795;SDS011;65745;50.278;18.192;2024-02-04T14:59:10;6.10;;;4.40;;
76795;SDS011;65745;50.278;18.192;2024-02-04T15:01:51;7.00;;;4.50;;
76795;SDS011;65745;50.278;18.192;2024-02-04T15:04:23;5.90;;;5.20;;
76795;SDS011;65745;50.278;18.192;2024-02-04T15:06:56;9.80;;;6.00;;
76795;SDS011;65745;50.278;18.192;2024-02-04T15:09:28;7.60;;;5.10;;
76795;SDS011;65745;50.278;18.192;2024-02-04T15:12:04;8.30;;;5.60;;
76795;SDS011;65745;50.278;18.192;2024-02-04T15:14:38;8.40;;;6.20;;